Time;durP1;ratioP1;P1;durP2;ratioP2;P2;SDS_P1;SDS_P2;PMS_P1;PMS_P2;Temp;Humidity;BMP_temperature;BMP_pressure;BME280_temperature;BME280_humidity;BME280_pressure;Samples;Min_cycle;Max_cycle;Signal;HPM_P1;HPM_P2
2022/05/12 00:00:55;;;;;;;6.67;6.30;;;18.50;65.30;;;;;;6178749;28;20655;-55
2022/05/12 00:03:58;;;;;;;7.60;6.73;;;18.50;69.80;;;;;;6184328;28;20329;-56
2022/05/12 00:07:00;;;;;;;7.10;6.60;;;18.40;73.80;;;;;;6168731;28;20326;-55
2022/05/12 00:10:06;;;;;;;7.40;6.70;;;18.30;80.50;;;;;;6154121;28;20480;-52
2022/05/12 00:13:12;;;;;;;6.60;6.13;;;18.30;80.30;;;;;;6181173;28;20326;-56
2022/05/12 00:16:16;;;;;;;6.60;6.20;;;18.30;80.30;;;;;;6182882;28;20330;-54
2022/05/12 00:19:21;;;;;;;7.57;6.90;;;18.20;80.30;;;;;;6157387;28;20232;-55
2022/05/12 00:22:25;;;;;;;7.50;6.90;;;18.20;80.40;;;;;;6158183;28;20281;-56
2022/05/12 00:25:28;;;;;;;7.20;6.47;;;18.20;80.30;;;;;;6162963;28;20246;-55
2022/05/12 00:28:30;;;;;;;6.57;6.10;;;18.20;80.30;;;;;;6174954;28;20779;-56
2022/05/12 00:31:38;;;;;;;6.60;6.30;;;18.20;80.30;;;;;;6182250;28;20242;-55
2022/05/12 00:34:41;;;;;;;6.27;5.87;;;18.20;70.80;;;;;;6191060;28;20244;-55
2022/05/12 00:37:44;;;;;;;6.07;5.77;;;18.20;68.00;;;;;;6167783;28;20707;-54
2022/05/12 00:40:47;;;;;;;6.50;6.07;;;18.20;63.40;;;;;;6179629;28;20232;-56
2022/05/12 00:43:52;;;;;;;6.87;6.37;;;18.20;61.00;;;;;;6176488;28;20315;-55
2022/05/12 00:47:01;;;;;;;5.97;5.67;;;18.20;61.30;;;;;;6155293;28;20456;-55
2022/05/12 00:50:05;;;;;;;6.87;6.37;;;18.20;60.60;;;;;;6156295;28;20307;-55
2022/05/12 00:53:10;;;;;;;7.13;6.20;;;18.20;62.60;;;;;;6169022;28;20236;-55
2022/05/12 00:56:17;;;;;;;6.53;6.00;;;18.30;56.40;;;;;;6179377;28;20239;-56
2022/05/12 00:59:27;;;;;;;6.00;5.60;;;18.30;53.40;;;;;;6175038;28;20648;-55
2022/05/12 01:02:33;;;;;;;6.70;6.20;;;18.30;51.00;;;;;;6173351;28;20241;-54
2022/05/12 01:05:36;;;;;;;5.90;5.40;;;18.30;49.70;;;;;;6185456;28;20228;-55
2022/05/12 01:08:41;;;;;;;6.77;6.13;;;18.30;46.50;;;;;;6184024;28;20671;-54
2022/05/12 01:11:44;;;;;;;6.67;6.20;;;18.30;48.30;;;;;;6178648;28;20248;-55
2022/05/12 01:14:46;;;;;;;6.37;5.80;;;18.30;43.20;;;;;;6168928;28;20320;-56
2022/05/12 01:18:01;;;;;;;6.73;5.97;;;18.30;43.50;;;;;;6156171;28;20324;-55
2022/05/12 01:21:04;;;;;;;6.03;5.77;;;18.30;40.00;;;;;;6156482;28;20760;-56
2022/05/12 01:24:09;;;;;;;6.47;5.50;;;18.30;38.20;;;;;;6156358;28;20716;-54
2022/05/12 01:27:22;;;;;;;6.47;5.87;;;18.40;39.90;;;;;;6165725;28;20367;-56
2022/05/12 01:30:29;;;;;;;6.73;6.07;;;18.40;34.50;;;;;;6179744;28;20579;-55
2022/05/12 01:33:32;;;;;;;5.80;5.30;;;18.40;31.00;;;;;;6139592;28;20610;-56
2022/05/12 01:36:42;;;;;;;5.60;5.13;;;18.40;29.20;;;;;;6187727;28;20268;-54
2022/05/12 01:39:46;;;;;;;8.80;5.93;;;18.50;19.20;;;;;;6175087;28;20283;-55
2022/05/12 01:42:49;;;;;;;6.47;5.87;;;18.50;38.90;;;;;;6177095;28;21034;-54
2022/05/12 01:45:52;;;;;;;6.67;6.00;;;18.50;71.10;;;;;;6178866;28;20255;-55
2022/05/12 01:48:59;;;;;;;6.23;5.83;;;18.20;92.60;;;;;;6159033;28;20504;-56
2022/05/12 01:52:02;;;;;;;6.60;6.13;;;18.00;99.90;;;;;;6155443;28;20354;-55
2022/05/12 01:55:08;;;;;;;6.80;6.30;;;17.90;99.90;;;;;;6155577;28;22506;-56
2022/05/12 01:58:11;;;;;;;6.70;6.27;;;17.90;99.90;;;;;;6155350;28;20314;-56
2022/05/12 02:01:14;;;;;;;6.70;6.07;;;17.70;99.90;;;;;;6177027;28;20314;-56
2022/05/12 02:04:18;;;;;;;7.43;6.40;;;17.70;99.90;;;;;;6182100;28;20857;-55
2022/05/12 02:07:21;;;;;;;7.17;6.47;;;17.60;99.90;;;;;;6200715;28;20271;-55
2022/05/12 02:10:29;;;;;;;7.50;6.87;;;17.60;99.90;;;;;;6177722;28;20597;-54
2022/05/12 02:13:32;;;;;;;7.40;6.20;;;17.40;99.90;;;;;;6178073;28;20236;-57
2022/05/12 02:16:36;;;;;;;7.23;6.70;;;17.40;99.90;;;;;;6165849;28;20241;-54
2022/05/12 02:19:38;;;;;;;7.10;6.40;;;17.30;99.90;;;;;;6154760;28;20396;-54
2022/05/12 02:22:44;;;;;;;6.87;6.37;;;17.30;99.90;;;;;;6155178;28;20551;-56
2022/05/12 02:25:48;;;;;;;6.63;6.07;;;17.20;99.90;;;;;;6147001;28;20347;-57
2022/05/12 02:28:51;;;;;;;6.90;6.40;;;17.10;99.90;;;;;;6177323;28;20382;-55
2022/05/12 02:32:01;;;;;;;7.90;6.63;;;17.10;99.90;;;;;;6179423;28;20244;-55
2022/05/12 02:35:04;;;;;;;13.60;7.40;;;17.00;99.90;;;;;;6190260;28;20621;-54
2022/05/12 02:38:10;;;;;;;8.70;6.70;;;17.00;99.90;;;;;;6182478;28;20740;-55
2022/05/12 02:41:14;;;;;;;15.57;8.00;;;16.90;99.90;;;;;;6176012;28;20242;-56
2022/05/12 02:44:16;;;;;;;10.77;8.03;;;16.70;99.90;;;;;;6155080;28;20241;-56
2022/05/12 02:47:19;;;;;;;10.57;7.83;;;16.70;99.90;;;;;;6153741;28;20272;-60
2022/05/12 02:50:23;;;;;;;8.87;7.87;;;16.50;99.90;;;;;;6154106;28;20384;-55
2022/05/12 02:53:27;;;;;;;8.23;7.40;;;16.40;99.90;;;;;;6155461;28;20239;-56
2022/05/12 02:56:33;;;;;;;8.37;7.57;;;16.30;99.90;;;;;;6154727;28;20624;-57
2022/05/12 02:59:37;;;;;;;9.13;7.57;;;16.20;99.90;;;;;;6169172;28;20881;-54
2022/05/12 03:02:46;;;;;;;9.77;7.73;;;16.10;99.90;;;;;;6181981;28;20240;-55
2022/05/12 03:05:51;;;;;;;9.50;7.53;;;15.90;99.90;;;;;;6197900;28;20606;-55
2022/05/12 03:08:54;;;;;;;7.77;6.80;;;15.80;99.90;;;;;;6187894;28;20714;-54
2022/05/12 03:11:59;;;;;;;9.17;6.90;;;15.70;99.90;;;;;;6175246;28;20326;-55
2022/05/12 03:15:03;;;;;;;7.37;6.67;;;15.60;99.90;;;;;;6179249;28;20248;-55
2022/05/12 03:18:07;;;;;;;7.77;6.77;;;15.70;99.90;;;;;;6176590;28;20298;-55
2022/05/12 03:21:10;;;;;;;8.57;6.80;;;15.60;1.00;;;;;;6177872;28;20781;-54
2022/05/12 03:24:13;;;;;;;10.00;7.47;;;15.50;1.00;;;;;;6178816;28;20275;-56
2022/05/12 03:27:17;;;;;;;10.83;6.87;;;15.50;1.00;;;;;;6166279;28;20670;-56
2022/05/12 03:30:23;;;;;;;8.43;7.60;;;15.50;1.00;;;;;;6176006;28;20236;-55
2022/05/12 03:33:25;;;;;;;12.47;7.87;;;15.50;1.00;;;;;;6156445;28;20319;-54
2022/05/12 03:36:33;;;;;;;10.20;7.57;;;15.50;1.00;;;;;;6179666;28;20250;-54
2022/05/12 03:39:37;;;;;;;9.33;7.20;;;15.40;1.00;;;;;;6191748;28;20611;-56
2022/05/12 03:42:42;;;;;;;8.10;7.17;;;15.40;1.00;;;;;;6181465;28;20236;-55
2022/05/12 03:45:44;;;;;;;9.97;7.23;;;15.40;1.00;;;;;;6172580;28;20245;-54
2022/05/12 03:48:47;;;;;;;7.97;7.23;;;15.40;1.00;;;;;;6186252;28;20249;-56
2022/05/12 03:51:51;;;;;;;9.90;7.17;;;15.40;1.00;;;;;;6181998;28;20398;-56
2022/05/12 03:55:04;;;;;;;7.40;6.80;;;15.50;1.00;;;;;;6185341;28;20476;-56
2022/05/12 03:58:09;;;;;;;8.47;7.60;;;15.40;1.00;;;;;;6182951;28;20261;-55
2022/05/12 04:01:12;;;;;;;6.60;6.20;;;15.50;99.90;;;;;;6175294;28;20304;-56
2022/05/12 04:04:15;;;;;;;7.03;6.27;;;15.50;99.90;;;;;;6184084;28;20239;-54
2022/05/12 04:07:19;;;;;;;7.47;6.73;;;15.40;99.90;;;;;;6180537;28;20244;-55
2022/05/12 04:10:23;;;;;;;10.60;7.10;;;15.40;1.00;;;;;;6181237;28;20506;-56
2022/05/12 04:13:27;;;;;;;7.17;6.50;;;15.40;1.00;;;;;;6179980;28;20373;-55
2022/05/12 04:16:31;;;;;;;7.60;6.87;;;15.40;99.90;;;;;;6183437;28;20358;-55
2022/05/12 04:19:34;;;;;;;7.47;6.77;;;15.40;1.00;;;;;;6188817;28;20235;-55
2022/05/12 04:22:40;;;;;;;12.27;7.17;;;15.30;1.00;;;;;;6186175;28;20433;-55
2022/05/12 04:25:42;;;;;;;7.33;6.60;;;15.40;99.90;;;;;;6172468;28;20844;-55
2022/05/12 04:28:46;;;;;;;7.47;6.20;;;15.30;99.90;;;;;;6182159;28;20712;-55
2022/05/12 04:31:49;;;;;;;7.23;6.53;;;15.30;99.90;;;;;;6191745;28;20239;-56
2022/05/12 04:38:13;;;;;;;6.27;5.77;;;15.30;99.90;;;;;;6186753;28;20240;-55
2022/05/12 04:41:16;;;;;;;6.60;6.00;;;15.40;99.90;;;;;;6181200;28;20235;-56
2022/05/12 04:44:20;;;;;;;9.07;5.67;;;15.30;99.90;;;;;;6189961;28;20235;-55
2022/05/12 04:47:23;;;;;;;6.77;6.00;;;15.30;99.90;;;;;;6185680;28;20301;-57
2022/05/12 04:50:29;;;;;;;7.90;5.70;;;15.30;99.90;;;;;;6190055;28;20240;-54
2022/05/12 04:53:33;;;;;;;9.07;5.73;;;15.20;99.90;;;;;;6175880;28;20228;-55
2022/05/12 04:56:37;;;;;;;5.70;5.27;;;15.30;99.90;;;;;;6173434;28;20574;-55
2022/05/12 04:59:41;;;;;;;5.03;4.83;;;15.40;99.90;;;;;;6172147;28;20944;-55
2022/05/12 05:02:46;;;;;;;5.97;5.10;;;15.50;99.90;;;;;;6181003;28;20294;-55
2022/05/12 05:05:50;;;;;;;6.27;4.80;;;15.60;99.90;;;;;;6193847;28;20336;-55
2022/05/12 05:09:02;;;;;;;6.87;4.50;;;15.70;99.90;;;;;;6176525;28;20309;-54
2022/05/12 05:12:12;;;;;;;9.50;4.80;;;15.80;99.90;;;;;;6183560;28;20540;-55
2022/05/12 05:15:18;;;;;;;5.53;5.13;;;15.90;99.90;;;;;;6178345;28;20370;-55
2022/05/12 05:18:22;;;;;;;4.30;4.10;;;16.00;99.90;;;;;;6190705;28;20288;-54
2022/05/12 05:21:25;;;;;;;6.13;4.70;;;15.90;99.90;;;;;;6194135;28;20459;-54
2022/05/12 05:24:29;;;;;;;4.50;3.93;;;16.00;99.90;;;;;;6171669;28;20350;-55
2022/05/12 05:27:32;;;;;;;4.57;4.07;;;15.90;99.90;;;;;;6169368;28;20611;-57
2022/05/12 05:30:36;;;;;;;7.17;4.10;;;16.00;99.90;;;;;;6169160;28;20247;-56
2022/05/12 05:33:38;;;;;;;5.10;4.70;;;16.10;99.90;;;;;;6179192;28;20415;-56
2022/05/12 05:36:44;;;;;;;5.63;3.80;;;16.10;99.90;;;;;;6185509;28;20635;-55
2022/05/12 05:39:46;;;;;;;3.90;3.70;;;16.20;99.90;;;;;;6190292;28;20622;-54
2022/05/12 05:42:49;;;;;;;3.70;3.50;;;16.10;99.90;;;;;;6190002;28;20362;-54
2022/05/12 05:45:54;;;;;;;3.60;3.30;;;16.20;99.90;;;;;;6183147;28;20240;-55
2022/05/12 05:48:57;;;;;;;3.30;3.10;;;16.10;99.90;;;;;;6184951;28;20305;-54
2022/05/12 05:55:20;;;;;;;3.00;2.80;;;16.10;99.90;;;;;;6186327;28;20311;-54
2022/05/12 05:58:24;;;;;;;10.73;2.90;;;16.10;99.90;;;;;;6187779;28;20351;-56
2022/05/12 06:01:31;;;;;;;7.00;2.70;;;16.20;99.90;;;;;;6186299;28;20522;-56
2022/05/12 06:04:34;;;;;;;2.80;2.60;;;16.40;99.90;;;;;;6180860;28;20877;-55
2022/05/12 06:07:37;;;;;;;3.10;2.80;;;16.40;99.90;;;;;;6185586;28;20247;-56
2022/05/12 06:10:40;;;;;;;3.23;2.80;;;16.40;99.90;;;;;;6183184;28;20254;-55
2022/05/12 06:13:44;;;;;;;2.90;2.80;;;16.60;99.90;;;;;;6173178;28;20659;-56
2022/05/12 06:16:48;;;;;;;2.77;2.63;;;16.60;99.90;;;;;;6190456;28;20235;-56
2022/05/12 06:19:51;;;;;;;4.67;2.60;;;16.80;99.90;;;;;;6180327;28;20298;-55
2022/05/12 06:22:55;;;;;;;4.07;2.70;;;16.80;99.90;;;;;;6190628;28;20271;-56
2022/05/12 06:26:01;;;;;;;2.47;2.47;;;16.70;99.90;;;;;;6183500;28;20741;-53
2022/05/12 06:29:04;;;;;;;5.47;2.57;;;16.40;99.90;;;;;;6175015;28;20290;-56
2022/05/12 06:32:15;;;;;;;3.30;2.40;;;16.30;99.90;;;;;;6191087;28;20236;-54
2022/05/12 06:35:20;;;;;;;3.00;2.27;;;16.20;99.90;;;;;;6173649;28;20380;-55
2022/05/12 06:38:23;;;;;;;3.23;2.53;;;16.20;99.90;;;;;;6185948;28;20293;-56
2022/05/12 06:41:26;;;;;;;3.87;3.00;;;16.20;99.90;;;;;;6187897;28;20436;-56
2022/05/12 06:44:30;;;;;;;2.97;2.67;;;16.20;99.90;;;;;;6184444;28;20710;-56
2022/05/12 06:47:34;;;;;;;2.50;2.50;;;16.20;99.90;;;;;;6190117;28;20558;-54
2022/05/12 06:50:37;;;;;;;2.33;2.30;;;16.20;99.90;;;;;;6194235;28;20328;-56
2022/05/12 06:53:42;;;;;;;2.17;2.07;;;16.20;99.90;;;;;;6185571;28;20679;-56
2022/05/12 06:56:51;;;;;;;2.67;2.47;;;16.10;99.90;;;;;;6185966;28;20246;-54
2022/05/12 07:00:05;;;;;;;2.80;2.20;;;16.00;99.90;;;;;;6171886;28;20319;-54
2022/05/12 07:03:13;;;;;;;2.83;2.63;;;15.90;99.90;;;;;;6185431;28;20733;-55
2022/05/12 07:06:16;;;;;;;3.80;2.50;;;15.90;99.90;;;;;;6177002;28;20255;-55
2022/05/12 07:09:20;;;;;;;2.53;2.40;;;16.00;99.90;;;;;;6190485;28;20235;-55
2022/05/12 07:12:23;;;;;;;3.97;2.20;;;16.00;99.90;;;;;;6181606;28;20877;-55
2022/05/12 07:15:28;;;;;;;3.23;2.37;;;16.10;99.90;;;;;;6188028;28;20240;-55
2022/05/12 07:18:34;;;;;;;2.57;2.20;;;16.20;99.90;;;;;;6182534;28;20787;-51
2022/05/12 07:28:22;;;;;;;2.67;2.47;;;16.60;99.90;;;;;;6182137;28;20240;-54
2022/05/12 07:31:25;;;;;;;3.50;2.10;;;16.60;99.90;;;;;;6186914;28;20259;-55
2022/05/12 07:34:30;;;;;;;3.17;2.10;;;16.70;89.80;;;;;;6176565;28;20464;-54
2022/05/12 07:37:32;;;;;;;2.40;2.23;;;16.80;99.90;;;;;;6191043;28;20244;-55
2022/05/12 07:40:35;;;;;;;1.73;1.73;;;17.20;79.40;;;;;;6187327;28;20298;-55
2022/05/12 07:43:39;;;;;;;1.60;1.60;;;17.20;62.30;;;;;;6194205;28;20243;-55
2022/05/12 07:46:42;;;;;;;1.60;1.60;;;17.40;18.40;;;;;;6187974;28;20249;-55
2022/05/12 07:49:46;;;;;;;4.73;1.43;;;17.40;6.20;;;;;;6189279;28;20244;-55
2022/05/12 07:52:49;;;;;;;1.97;1.80;;;17.30;1.00;;;;;;6192001;28;20319;-55
2022/05/12 07:55:52;;;;;;;1.63;1.53;;;17.30;1.00;;;;;;6191473;28;20343;-55
2022/05/12 07:58:56;;;;;;;1.87;1.77;;;17.10;18.30;;;;;;6184247;28;20609;-50
2022/05/12 08:01:59;;;;;;;1.73;1.73;;;17.10;18.20;;;;;;6186442;28;20928;-54
2022/05/12 08:05:04;;;;;;;2.77;1.83;;;17.10;23.00;;;;;;6194843;28;20369;-54
2022/05/12 08:08:09;;;;;;;2.63;2.00;;;16.90;27.80;;;;;;6182610;28;21097;-54
2022/05/12 08:11:14;;;;;;;2.30;2.20;;;16.70;28.30;;;;;;6182637;28;20363;-54
2022/05/12 08:14:16;;;;;;;2.27;2.17;;;16.40;32.70;;;;;;6180584;28;20239;-58
2022/05/12 08:17:19;;;;;;;2.17;2.00;;;16.30;44.40;;;;;;6188162;28;20314;-56
2022/05/12 08:20:24;;;;;;;4.37;2.10;;;16.30;27.00;;;;;;6182911;28;20243;-54
2022/05/12 08:23:27;;;;;;;2.47;2.30;;;16.20;27.50;;;;;;6185205;28;20307;-55
2022/05/12 08:26:34;;;;;;;2.33;2.20;;;16.30;34.50;;;;;;6184041;28;20289;-56
2022/05/12 08:29:38;;;;;;;2.37;2.27;;;16.50;18.00;;;;;;6191851;28;20239;-54
2022/05/12 08:32:40;;;;;;;2.13;2.03;;;16.50;17.80;;;;;;6190864;28;20332;-54
2022/05/12 08:35:45;;;;;;;2.13;1.90;;;16.80;11.40;;;;;;6183274;28;20251;-55
2022/05/12 08:38:48;;;;;;;3.27;1.70;;;17.00;1.00;;;;;;6180170;28;20252;-56
2022/05/12 08:41:55;;;;;;;2.10;1.97;;;16.90;1.00;;;;;;6192466;28;20257;-55
2022/05/12 08:45:00;;;;;;;2.00;1.93;;;17.00;1.00;;;;;;6188452;28;20232;-54
2022/05/12 08:48:03;;;;;;;2.27;2.10;;;17.30;1.00;;;;;;6180752;28;21133;-55
2022/05/12 08:51:07;;;;;;;1.83;1.73;;;17.40;1.00;;;;;;6180094;28;20471;-57
2022/05/12 08:54:15;;;;;;;1.73;1.70;;;17.60;1.00;;;;;;6191540;28;20235;-55
2022/05/12 08:57:28;;;;;;;1.87;1.80;;;17.60;1.00;;;;;;6186229;28;20674;-56
2022/05/12 09:00:38;;;;;;;2.10;2.00;;;17.60;1.00;;;;;;6176852;28;20263;-54
2022/05/12 09:03:54;;;;;;;2.27;2.17;;;17.50;1.00;;;;;;6186509;28;20251;-54
2022/05/12 09:07:08;;;;;;;7.27;2.33;;;17.40;1.00;;;;;;6183236;28;20237;-56
2022/05/12 09:10:33;;;;;;;4.33;2.10;;;17.50;1.00;;;;;;6179163;28;20399;-54
2022/05/12 09:13:41;;;;;;;4.80;1.97;;;17.70;1.00;;;;;;6181963;28;20254;-56
2022/05/12 09:16:46;;;;;;;2.00;1.90;;;17.80;1.00;;;;;;6184790;28;20251;-55
2022/05/12 09:19:49;;;;;;;2.47;2.27;;;17.70;1.00;;;;;;6177739;28;20376;-54
2022/05/12 09:22:53;;;;;;;2.47;2.20;;;17.70;1.00;;;;;;6167117;28;20339;-56
2022/05/12 09:25:56;;;;;;;3.13;2.20;;;17.60;1.00;;;;;;6178123;28;20387;-54
2022/05/12 09:29:10;;;;;;;2.80;1.70;;;17.80;1.00;;;;;;6165866;28;20693;-55
2022/05/12 09:32:23;;;;;;;1.90;1.80;;;17.90;1.00;;;;;;6183772;28;20664;-54
2022/05/12 09:35:29;;;;;;;2.20;2.10;;;18.10;1.00;;;;;;6176633;28;20712;-56
2022/05/12 09:38:40;;;;;;;2.07;1.93;;;18.20;1.00;;;;;;6197847;28;20790;-56
2022/05/12 09:41:45;;;;;;;3.13;2.13;;;18.30;1.00;;;;;;6186991;28;20351;-55
2022/05/12 09:44:54;;;;;;;2.20;2.00;;;18.10;1.00;;;;;;6184484;28;20377;-54
2022/05/12 09:48:21;;;;;;;2.10;2.00;;;18.00;1.00;;;;;;6183127;28;20343;-55
2022/05/12 09:51:31;;;;;;;2.17;1.90;;;18.10;1.00;;;;;;6179193;28;20310;-54
2022/05/12 09:54:35;;;;;;;2.03;1.83;;;18.30;1.00;;;;;;6182526;28;20231;-55
2022/05/12 09:57:46;;;;;;;1.90;1.80;;;18.20;1.00;;;;;;6182001;28;20240;-55
2022/05/12 10:01:05;;;;;;;2.03;1.90;;;18.20;1.00;;;;;;6169082;28;20710;-55
2022/05/12 10:08:02;;;;;;;2.13;2.00;;;17.80;1.00;;;;;;6182487;28;20352;-55
2022/05/12 10:11:09;;;;;;;2.50;1.90;;;17.80;1.00;;;;;;6171506;28;20247;-56
2022/05/12 10:14:37;;;;;;;2.10;2.00;;;17.90;1.00;;;;;;6173113;28;20238;-56
2022/05/12 10:17:54;;;;;;;3.60;1.80;;;18.00;1.00;;;;;;6184734;28;20267;-54
2022/05/12 10:21:03;;;;;;;3.70;2.10;;;18.10;1.00;;;;;;6173940;28;20236;-56
2022/05/12 10:24:15;;;;;;;3.70;2.33;;;18.50;1.00;;;;;;6187798;28;20787;-55
2022/05/12 10:27:29;;;;;;;3.87;2.10;;;18.70;1.00;;;;;;6174007;28;20241;-56
2022/05/12 10:30:43;;;;;;;2.00;1.90;;;18.70;1.00;;;;;;6188806;28;20298;-56
2022/05/12 10:33:58;;;;;;;2.23;1.90;;;18.60;1.00;;;;;;6177082;28;20835;-55
2022/05/12 10:37:06;;;;;;;2.23;2.13;;;18.40;1.00;;;;;;6189934;28;20303;-55
2022/05/12 10:40:27;;;;;;;2.20;2.00;;;18.40;1.00;;;;;;6182891;28;20398;-54
2022/05/12 10:43:58;;;;;;;4.27;2.17;;;18.30;1.00;;;;;;6194301;28;20521;-55
2022/05/12 10:47:10;;;;;;;1.70;1.70;;;18.50;1.00;;;;;;6166233;28;20445;-55
2022/05/12 10:50:20;;;;;;;2.73;1.80;;;18.50;1.00;;;;;;6184999;28;20401;-55
2022/05/12 10:53:39;;;;;;;2.17;2.07;;;18.60;1.00;;;;;;6187842;28;20267;-55
2022/05/12 10:56:48;;;;;;;2.93;2.07;;;18.60;1.00;;;;;;6171870;28;20659;-56
2022/05/12 11:00:08;;;;;;;2.37;2.00;;;18.60;1.00;;;;;;6184519;28;20272;-57
2022/05/12 11:03:19;;;;;;;1.83;1.80;;;18.80;1.00;;;;;;6180790;28;20243;-55
2022/05/12 11:06:28;;;;;;;2.73;2.03;;;18.90;1.00;;;;;;6189321;28;20251;-55
2022/05/12 11:09:38;;;;;;;1.90;1.90;;;19.20;1.00;;;;;;6186310;28;20622;-55
2022/05/12 11:12:46;;;;;;;1.83;1.83;;;19.20;1.00;;;;;;6190739;28;20691;-56
2022/05/12 11:15:58;;;;;;;1.90;1.90;;;19.10;1.00;;;;;;6182595;28;20321;-54
2022/05/12 11:19:07;;;;;;;1.80;1.80;;;19.10;1.00;;;;;;6183297;28;20327;-54
2022/05/12 11:22:20;;;;;;;2.00;1.80;;;18.90;1.00;;;;;;6193447;28;20498;-55
2022/05/12 11:25:30;;;;;;;2.00;1.90;;;18.80;1.00;;;;;;6177910;28;20238;-56
2022/05/12 11:32:22;;;;;;;2.83;1.97;;;18.80;1.00;;;;;;6190564;28;20240;-55
2022/05/12 11:35:28;;;;;;;1.93;1.90;;;18.90;1.00;;;;;;6183204;28;20232;-54
2022/05/12 11:38:48;;;;;;;3.53;2.20;;;18.90;1.00;;;;;;6188293;28;20290;-56
2022/05/12 11:42:11;;;;;;;2.53;2.37;;;18.90;1.00;;;;;;6182549;28;20382;-55
2022/05/12 11:45:35;;;;;;;2.23;2.20;;;18.90;1.00;;;;;;6192066;28;20251;-55
2022/05/12 11:48:52;;;;;;;2.53;2.10;;;18.90;1.00;;;;;;6181308;28;20244;-56
2022/05/12 11:52:03;;;;;;;2.27;2.13;;;19.10;1.00;;;;;;6179144;28;20267;-56
2022/05/12 11:55:20;;;;;;;2.13;2.03;;;18.90;1.00;;;;;;6194446;28;20358;-55
2022/05/12 11:58:31;;;;;;;2.27;2.10;;;18.90;1.00;;;;;;6177356;28;20233;-55
2022/05/12 12:01:50;;;;;;;1.90;1.90;;;18.90;1.00;;;;;;6178183;28;20239;-54
2022/05/12 12:04:57;;;;;;;2.23;2.13;;;18.80;1.00;;;;;;6186201;28;20234;-56
2022/05/12 12:08:10;;;;;;;1.93;1.93;;;18.90;1.00;;;;;;6189869;28;20342;-56
2022/05/12 12:11:26;;;;;;;2.23;2.10;;;19.00;1.00;;;;;;6178858;28;20249;-55
2022/05/12 12:14:57;;;;;;;2.00;2.00;;;18.80;1.00;;;;;;6191152;28;20729;-60
2022/05/12 12:18:24;;;;;;;2.10;1.70;;;19.00;1.00;;;;;;6180445;28;20289;-55
2022/05/12 12:22:07;;;;;;;2.20;2.00;;;19.00;1.00;;;;;;6185148;28;20233;-55
2022/05/12 12:25:34;;;;;;;1.90;1.90;;;19.00;1.00;;;;;;6181073;28;20615;-52
2022/05/12 12:28:43;;;;;;;2.23;2.03;;;19.10;1.00;;;;;;6186597;28;20322;-58
2022/05/12 12:31:48;;;;;;;1.80;1.80;;;19.10;1.00;;;;;;6185655;28;20335;-56
2022/05/12 12:34:54;;;;;;;4.03;2.27;;;19.20;1.00;;;;;;6181944;28;20279;-55
2022/05/12 12:38:30;;;;;;;2.63;2.20;;;19.30;1.00;;;;;;6195458;28;20239;-55
2022/05/12 12:41:49;;;;;;;2.20;1.90;;;19.40;1.00;;;;;;6184122;28;20888;-55
2022/05/12 12:44:55;;;;;;;2.30;2.10;;;19.70;1.00;;;;;;6173625;28;20542;-55
2022/05/12 12:48:08;;;;;;;1.90;1.90;;;19.60;1.00;;;;;;6186251;28;20531;-54
2022/05/12 12:51:27;;;;;;;1.63;1.60;;;19.60;1.00;;;;;;6178607;28;20236;-54
2022/05/12 12:57:58;;;;;;;2.10;2.00;;;19.60;1.00;;;;;;6167328;28;20355;-55
2022/05/12 13:01:03;;;;;;;1.97;1.80;;;19.60;1.00;;;;;;6177405;28;20238;-55
2022/05/12 13:04:10;;;;;;;1.97;1.87;;;19.70;1.00;;;;;;6187647;28;20232;-54
2022/05/12 13:07:27;;;;;;;1.70;1.70;;;19.70;1.00;;;;;;6189314;28;20247;-53
2022/05/12 13:10:33;;;;;;;2.13;1.90;;;19.60;1.00;;;;;;6187730;28;20517;-54
2022/05/12 13:13:49;;;;;;;2.60;2.07;;;19.60;1.00;;;;;;6182495;28;20317;-55
2022/05/12 13:16:52;;;;;;;1.90;1.80;;;19.70;1.00;;;;;;6185579;28;20239;-55
2022/05/12 13:20:01;;;;;;;3.60;3.40;;;20.00;1.00;;;;;;6189497;28;20308;-55
2022/05/12 13:23:07;;;;;;;3.40;3.10;;;20.20;1.00;;;;;;6190674;28;20839;-55
2022/05/12 13:26:10;;;;;;;5.07;2.73;;;20.20;1.00;;;;;;6181097;28;20837;-55
2022/05/12 13:29:22;;;;;;;2.37;2.27;;;20.30;1.00;;;;;;6183316;28;20236;-54
2022/05/12 13:32:38;;;;;;;1.90;1.70;;;20.40;1.00;;;;;;6187148;28;20251;-55
2022/05/12 13:35:41;;;;;;;3.37;1.80;;;20.50;1.00;;;;;;6189342;28;20250;-55
2022/05/12 13:38:46;;;;;;;1.77;1.67;;;20.50;1.00;;;;;;6194327;28;20338;-56
2022/05/12 13:41:49;;;;;;;1.70;1.70;;;20.50;1.00;;;;;;6181017;28;20255;-53
2022/05/12 13:44:56;;;;;;;2.13;1.90;;;20.70;1.00;;;;;;6185647;28;20290;-57
2022/05/12 13:48:01;;;;;;;2.00;1.90;;;20.50;1.00;;;;;;6190301;28;20266;-57
2022/05/12 13:51:04;;;;;;;3.47;1.90;;;20.50;1.00;;;;;;6176243;28;20274;-55
2022/05/12 13:54:29;;;;;;;1.87;1.77;;;20.60;1.00;;;;;;6179363;28;20802;-54
2022/05/12 13:57:36;;;;;;;1.63;1.50;;;20.40;1.00;;;;;;6179043;28;20775;-55
2022/05/12 14:00:45;;;;;;;1.80;1.70;;;20.20;1.00;;;;;;6179753;28;20412;-55
2022/05/12 14:04:12;;;;;;;1.70;1.70;;;20.20;1.00;;;;;;6180134;28;20239;-56
2022/05/12 14:07:16;;;;;;;1.90;1.80;;;20.20;1.00;;;;;;6176885;28;20236;-53
2022/05/12 14:10:30;;;;;;;2.00;1.90;;;20.20;1.00;;;;;;6193534;28;20869;-55
2022/05/12 14:20:22;;;;;;;1.73;1.73;;;20.60;1.00;;;;;;6189447;28;20287;-55
2022/05/12 14:23:25;;;;;;;1.80;1.80;;;20.60;1.00;;;;;;6187333;28;20235;-56
2022/05/12 14:26:28;;;;;;;2.00;1.80;;;20.30;1.00;;;;;;6180502;28;20319;-55
2022/05/12 14:29:31;;;;;;;1.97;1.93;;;20.30;1.00;;;;;;6189698;28;20238;-54
2022/05/12 14:32:40;;;;;;;1.90;1.80;;;20.30;1.00;;;;;;6183535;28;20239;-55
2022/05/12 14:35:44;;;;;;;1.60;1.60;;;20.50;1.00;;;;;;6177046;28;20706;-55
2022/05/12 14:38:48;;;;;;;2.20;2.00;;;20.60;1.00;;;;;;6181619;28;20250;-56
2022/05/12 14:41:51;;;;;;;2.83;1.80;;;20.70;1.00;;;;;;6188518;28;20368;-55
2022/05/12 14:44:54;;;;;;;1.87;1.60;;;20.80;1.00;;;;;;6184867;28;20330;-56
2022/05/12 14:48:02;;;;;;;3.47;1.83;;;20.80;1.00;;;;;;6179614;28;20330;-56
2022/05/12 14:51:05;;;;;;;1.77;1.67;;;20.80;1.00;;;;;;6186834;28;20323;-55
2022/05/12 14:54:07;;;;;;;1.90;1.80;;;20.80;1.00;;;;;;6192935;28;20377;-56
2022/05/12 14:57:10;;;;;;;2.33;1.90;;;20.60;1.00;;;;;;6178664;28;20250;-55
2022/05/12 15:00:15;;;;;;;1.53;1.43;;;20.80;1.00;;;;;;6174950;28;20323;-56
2022/05/12 15:03:25;;;;;;;1.80;1.70;;;20.50;1.00;;;;;;6181046;28;20267;-55
2022/05/12 15:06:30;;;;;;;4.30;1.80;;;20.40;1.00;;;;;;6182571;28;20257;-55
2022/05/12 15:09:33;;;;;;;1.90;1.80;;;20.40;1.00;;;;;;6182267;28;20327;-55
2022/05/12 15:12:36;;;;;;;1.70;1.60;;;20.50;1.00;;;;;;6170351;28;20697;-56
2022/05/12 15:15:41;;;;;;;2.00;1.50;;;20.70;1.00;;;;;;6184470;28;20239;-55
2022/05/12 15:18:45;;;;;;;5.83;2.20;;;20.70;1.00;;;;;;6181885;28;20236;-56
2022/05/12 15:21:48;;;;;;;2.57;1.70;;;20.60;1.00;;;;;;6171885;28;20237;-56
2022/05/12 15:24:51;;;;;;;2.73;1.83;;;20.40;1.00;;;;;;6183720;28;20692;-56
2022/05/12 15:27:54;;;;;;;1.70;1.60;;;20.40;1.00;;;;;;6174927;28;20274;-54
2022/05/12 15:30:58;;;;;;;2.13;1.93;;;20.40;1.00;;;;;;6185845;28;20709;-55
2022/05/12 15:34:03;;;;;;;3.33;2.03;;;20.40;1.00;;;;;;6180296;28;20302;-56
2022/05/12 15:37:06;;;;;;;1.83;1.77;;;20.60;1.00;;;;;;6181234;28;21400;-55
2022/05/12 15:40:12;;;;;;;4.20;1.80;;;20.60;1.00;;;;;;6188576;28;20364;-56
2022/05/12 15:43:16;;;;;;;2.13;2.03;;;20.60;1.00;;;;;;6183502;28;20260;-54
2022/05/12 15:46:23;;;;;;;2.10;2.00;;;20.40;1.00;;;;;;6179347;28;20300;-55
2022/05/12 15:49:30;;;;;;;1.87;1.77;;;20.40;1.00;;;;;;6189669;28;20242;-55
2022/05/12 15:52:33;;;;;;;2.00;1.80;;;20.30;1.00;;;;;;6190830;28;20329;-56
2022/05/12 15:55:41;;;;;;;1.77;1.67;;;20.20;1.00;;;;;;6181698;28;20335;-55
2022/05/12 15:58:44;;;;;;;3.47;2.13;;;20.00;1.00;;;;;;6191983;28;20239;-55
2022/05/12 16:01:47;;;;;;;1.90;1.80;;;19.90;1.00;;;;;;6195504;28;20239;-56
2022/05/12 16:04:52;;;;;;;2.00;1.83;;;20.00;1.00;;;;;;6190076;28;20254;-55
2022/05/12 16:07:55;;;;;;;2.03;1.90;;;20.00;1.00;;;;;;6176236;28;20246;-55
2022/05/12 16:10:58;;;;;;;2.50;2.30;;;20.10;1.00;;;;;;6186973;28;20655;-56
2022/05/12 16:14:01;;;;;;;3.13;2.70;;;20.20;1.00;;;;;;6180870;28;20919;-55
2022/05/12 16:17:05;;;;;;;2.10;1.80;;;20.10;1.00;;;;;;6194030;28;20239;-56
2022/05/12 16:20:10;;;;;;;1.70;1.60;;;20.10;1.00;;;;;;6187706;28;20243;-55
2022/05/12 16:23:14;;;;;;;4.07;1.70;;;20.00;1.00;;;;;;6189621;28;20231;-57
2022/05/12 16:26:18;;;;;;;1.93;1.83;;;19.90;1.00;;;;;;6183559;28;20335;-56
2022/05/12 16:29:26;;;;;;;2.10;1.90;;;19.80;1.00;;;;;;6190053;28;20246;-57
2022/05/12 16:32:30;;;;;;;2.77;2.07;;;19.60;1.00;;;;;;6185612;28;20370;-55
2022/05/12 16:35:36;;;;;;;2.53;2.10;;;19.40;1.00;;;;;;6190635;28;20394;-55
2022/05/12 16:38:42;;;;;;;2.17;1.97;;;19.50;1.00;;;;;;6183481;28;20318;-54
2022/05/12 16:41:45;;;;;;;1.77;1.67;;;19.60;1.00;;;;;;6177731;28;20244;-55
2022/05/12 16:44:48;;;;;;;2.00;1.90;;;19.60;1.00;;;;;;6186975;28;20543;-54
2022/05/12 16:47:51;;;;;;;2.03;1.87;;;19.60;1.00;;;;;;6177769;28;20247;-56
2022/05/12 16:50:59;;;;;;;1.60;1.60;;;19.70;1.00;;;;;;6182638;28;20664;-56